Time;durP1;ratioP1;P1;durP2;ratioP2;P2;SDS_P1;SDS_P2;PMS_P1;PMS_P2;Temp;Humidity;BMP_temperature;BMP_pressure;BME280_temperature;BME280_humidity;BME280_pressure;Samples;Min_cycle;Max_cycle;Signal;HPM_P1;HPM_P2
2022/10/10 00:01:52;;;;;;;15.15;10.70;;;15.00;95.70;;;;;;1905163;75;21102;-58
2022/10/10 00:04:22;;;;;;;18.60;11.80;;;15.00;96.00;;;;;;1905181;75;21003;-58
2022/10/10 00:06:52;;;;;;;19.30;11.20;;;15.00;95.70;;;;;;1905133;75;21212;-58
2022/10/10 00:09:21;;;;;;;16.37;10.20;;;15.10;95.70;;;;;;1905212;75;21073;-58
2022/10/10 00:11:51;;;;;;;13.53;10.25;;;15.10;95.70;;;;;;1905284;75;21008;-58
2022/10/10 00:14:21;;;;;;;14.78;10.20;;;15.10;95.70;;;;;;1905177;75;21138;-58
2022/10/10 00:16:51;;;;;;;14.60;11.10;;;15.10;95.80;;;;;;1905218;75;21171;-58
2022/10/10 00:19:21;;;;;;;15.98;9.93;;;15.10;95.80;;;;;;1905196;74;21066;-58
2022/10/10 00:21:50;;;;;;;20.05;12.05;;;15.20;95.80;;;;;;1905112;75;21079;-58
2022/10/10 00:24:20;;;;;;;20.27;11.43;;;15.20;95.80;;;;;;1905204;74;21056;-58
2022/10/10 00:26:50;;;;;;;16.40;11.65;;;15.20;95.80;;;;;;1905286;75;21147;-58
2022/10/10 00:29:20;;;;;;;14.83;11.25;;;15.20;95.80;;;;;;1905345;75;21067;-58
2022/10/10 00:31:49;;;;;;;13.03;9.35;;;15.20;95.70;;;;;;1905334;75;21036;-58
2022/10/10 00:34:18;;;;;;;16.45;10.72;;;15.20;96.00;;;;;;1905300;75;21067;-57
2022/10/10 00:36:48;;;;;;;15.75;11.60;;;15.10;95.80;;;;;;1905384;75;21098;-58
2022/10/10 00:39:17;;;;;;;17.48;11.57;;;15.20;95.90;;;;;;1905440;75;20984;-58
2022/10/10 00:41:47;;;;;;;24.23;12.68;;;15.20;95.90;;;;;;1905352;75;21071;-58
2022/10/10 00:44:17;;;;;;;23.32;12.80;;;15.20;95.90;;;;;;1905380;75;21131;-58
2022/10/10 00:46:47;;;;;;;20.85;13.98;;;15.30;96.00;;;;;;1905311;75;21201;-58
2022/10/10 00:49:19;;;;;;;22.05;13.78;;;15.30;95.90;;;;;;1905431;75;21015;-58
2022/10/10 00:51:51;;;;;;;26.27;14.83;;;15.30;96.00;;;;;;1905317;74;21019;-58
2022/10/10 00:54:23;;;;;;;22.30;14.00;;;15.20;96.10;;;;;;1905291;75;21071;-58
2022/10/10 00:57:00;;;;;;;25.25;14.15;;;15.20;95.90;;;;;;1905223;75;21169;-58
2022/10/10 00:59:32;;;;;;;25.92;13.70;;;15.20;96.00;;;;;;1905418;74;21067;-58
2022/10/10 01:02:01;;;;;;;23.73;13.55;;;15.30;96.00;;;;;;1905335;75;21178;-58
2022/10/10 01:04:37;;;;;;;24.10;14.58;;;15.30;96.00;;;;;;1905404;75;21031;-58
2022/10/10 01:07:15;;;;;;;20.35;12.90;;;15.30;96.00;;;;;;1905306;75;21077;-58
2022/10/10 01:09:47;;;;;;;22.50;13.25;;;15.30;96.00;;;;;;1905308;75;21632;-58
2022/10/10 01:12:34;;;;;;;16.20;11.28;;;15.30;96.00;;;;;;1905311;75;21007;-58
2022/10/10 01:15:09;;;;;;;17.48;11.10;;;15.20;96.00;;;;;;1905269;75;21142;-58
2022/10/10 01:17:44;;;;;;;19.70;12.82;;;15.30;96.10;;;;;;1904975;74;21075;-58
2022/10/10 01:20:19;;;;;;;18.40;12.20;;;15.30;96.10;;;;;;1904963;74;21179;-58
2022/10/10 01:23:24;;;;;;;16.97;12.35;;;15.30;96.10;;;;;;1905124;74;21229;-58
2022/10/10 01:26:00;;;;;;;25.50;12.30;;;15.30;96.10;;;;;;1920584;74;21063;-58
2022/10/10 01:28:50;;;;;;;24.67;15.98;;;15.40;96.10;;;;;;1922965;74;21124;-58
2022/10/10 01:31:23;;;;;;;25.43;15.60;;;15.40;96.10;;;;;;1924771;74;21015;-58
2022/10/10 01:34:01;;;;;;;25.30;15.03;;;15.40;96.10;;;;;;1924666;74;21066;-58
2022/10/10 01:36:33;;;;;;;19.15;12.40;;;15.40;96.10;;;;;;1924540;74;21120;-58
2022/10/10 01:39:20;;;;;;;17.92;12.60;;;15.40;96.10;;;;;;1924603;74;21215;-58
2022/10/10 01:41:57;;;;;;;20.57;14.07;;;15.50;96.10;;;;;;1924579;74;21082;-58
2022/10/10 01:44:27;;;;;;;29.20;15.43;;;15.50;96.20;;;;;;1924659;74;21121;-58
2022/10/10 01:46:57;;;;;;;30.08;15.63;;;15.50;96.10;;;;;;1924604;74;21015;-58
2022/10/10 01:49:30;;;;;;;34.33;17.90;;;15.60;96.20;;;;;;1924699;74;21070;-58
2022/10/10 01:52:14;;;;;;;25.55;13.38;;;15.60;96.20;;;;;;1924681;74;21158;-58
2022/10/10 01:54:49;;;;;;;19.15;13.10;;;15.60;96.20;;;;;;1924620;74;21168;-58
2022/10/10 01:57:25;;;;;;;;;;;15.60;96.20;;;;;;1925505;74;21081;-58
2022/10/10 02:00:02;;;;;;;30.17;17.98;;;15.60;96.20;;;;;;1924271;74;20575;-57
2022/10/10 02:02:38;;;;;;;33.10;18.92;;;15.60;96.10;;;;;;1924616;74;21484;-58
2022/10/10 02:05:31;;;;;;;26.15;16.55;;;15.60;96.10;;;;;;1924730;74;21066;-58
2022/10/10 02:08:12;;;;;;;30.00;16.85;;;15.70;96.20;;;;;;1924133;74;21165;-58
2022/10/10 02:10:47;;;;;;;23.27;13.00;;;15.70;96.20;;;;;;1924660;74;21193;-58
2022/10/10 02:13:18;;;;;;;27.55;15.45;;;15.70;96.20;;;;;;1924191;74;21034;-58
2022/10/10 02:15:53;;;;;;;36.03;21.20;;;15.70;96.20;;;;;;1924672;74;21219;-58
2022/10/10 02:18:25;;;;;;;22.75;14.25;;;15.70;96.30;;;;;;1924801;74;21027;-58
2022/10/10 02:20:55;;;;;;;35.45;20.77;;;15.70;96.30;;;;;;1924694;74;21272;-58
2022/10/10 02:23:25;;;;;;;42.23;23.18;;;15.70;96.30;;;;;;1924607;74;21034;-58
2022/10/10 02:25:57;;;;;;;24.92;14.38;;;15.70;96.30;;;;;;1924601;74;21185;-58
2022/10/10 02:28:53;;;;;;;29.45;17.52;;;15.70;96.40;;;;;;1924611;74;21185;-58
2022/10/10 02:31:37;;;;;;;41.35;19.90;;;15.70;96.40;;;;;;1866363;76;21038;-58
2022/10/10 02:34:11;;;;;;;35.80;19.73;;;15.80;96.40;;;;;;1917220;74;21199;-58
2022/10/10 02:36:43;;;;;;;26.95;16.48;;;15.70;96.40;;;;;;1924874;74;21058;-58
2022/10/10 02:39:14;;;;;;;29.50;17.85;;;15.80;96.50;;;;;;1924666;74;21286;-58
2022/10/10 02:41:46;;;;;;;27.37;16.77;;;15.80;96.50;;;;;;1924580;74;21289;-58
2022/10/10 02:44:16;;;;;;;25.77;16.87;;;15.80;96.60;;;;;;1924561;74;21050;-58
2022/10/10 02:46:45;;;;;;;26.82;17.95;;;15.80;96.60;;;;;;1924514;74;21066;-58
2022/10/10 02:49:16;;;;;;;30.80;18.45;;;15.80;96.70;;;;;;1924638;74;21141;-58
2022/10/10 02:51:46;;;;;;;30.00;18.30;;;15.80;96.90;;;;;;1923914;74;21805;-58
2022/10/10 02:54:16;;;;;;;25.60;17.90;;;15.80;96.80;;;;;;1924611;74;21340;-57
2022/10/10 02:56:46;;;;;;;23.92;16.95;;;15.80;96.70;;;;;;1924561;74;21185;-57
2022/10/10 02:59:15;;;;;;;29.90;17.95;;;15.80;96.80;;;;;;1924653;74;21055;-58
2022/10/10 03:01:45;;;;;;;25.30;15.63;;;15.90;96.90;;;;;;1924677;74;21126;-58
2022/10/10 03:04:15;;;;;;;24.72;16.40;;;15.90;96.80;;;;;;1924624;74;21330;-58
2022/10/10 03:06:45;;;;;;;23.10;15.95;;;15.90;96.80;;;;;;1924744;74;21044;-58
2022/10/10 03:09:14;;;;;;;21.37;14.75;;;15.90;96.80;;;;;;1924806;74;21165;-58
2022/10/10 03:11:44;;;;;;;20.88;15.20;;;15.90;96.80;;;;;;1924647;74;21254;-58
2022/10/10 03:14:14;;;;;;;23.90;16.15;;;15.90;96.80;;;;;;1924796;74;21126;-58
2022/10/10 03:16:43;;;;;;;22.95;14.90;;;15.90;96.80;;;;;;1924445;74;21336;-58
2022/10/10 03:19:13;;;;;;;21.90;14.78;;;15.90;96.90;;;;;;1924567;74;21211;-58
2022/10/10 03:21:42;;;;;;;27.67;15.10;;;15.90;97.10;;;;;;1924566;74;21067;-58
2022/10/10 03:24:12;;;;;;;20.97;15.23;;;15.90;97.00;;;;;;1924511;74;21281;-58
2022/10/10 03:26:42;;;;;;;19.40;14.30;;;15.90;97.00;;;;;;1910708;74;21420;-58
2022/10/10 03:29:12;;;;;;;23.02;14.18;;;15.90;97.20;;;;;;1905294;74;21126;-58
2022/10/10 03:31:41;;;;;;;22.02;14.10;;;15.90;97.30;;;;;;1905386;75;21241;-58
2022/10/10 03:34:11;;;;;;;23.05;15.35;;;15.90;97.40;;;;;;1905371;75;21271;-58
2022/10/10 03:36:41;;;;;;;24.20;13.25;;;15.90;97.20;;;;;;1905226;74;21256;-58
2022/10/10 03:39:10;;;;;;;18.95;13.62;;;15.90;97.40;;;;;;1905284;75;21224;-58
2022/10/10 03:41:40;;;;;;;16.23;12.30;;;15.90;97.30;;;;;;1905372;75;21035;-58
2022/10/10 03:44:10;;;;;;;16.60;11.90;;;15.90;97.40;;;;;;1905250;75;21208;-58
2022/10/10 03:46:40;;;;;;;17.12;12.18;;;15.90;97.50;;;;;;1905274;75;21193;-58
2022/10/10 03:49:09;;;;;;;17.23;12.40;;;15.90;97.40;;;;;;1905394;75;21003;-58
2022/10/10 03:51:38;;;;;;;23.40;13.58;;;15.90;97.20;;;;;;1905257;75;21139;-58
2022/10/10 03:54:08;;;;;;;16.10;11.93;;;15.90;97.10;;;;;;1905266;74;21170;-58
2022/10/10 03:56:38;;;;;;;15.05;11.63;;;15.90;97.20;;;;;;1905159;75;21078;-58
2022/10/10 03:59:08;;;;;;;15.88;12.73;;;15.90;97.10;;;;;;1905250;75;21294;-58
2022/10/10 04:01:37;;;;;;;19.55;11.68;;;15.90;97.20;;;;;;1905449;75;21327;-58
2022/10/10 04:04:07;;;;;;;14.93;11.40;;;15.90;97.10;;;;;;1905401;74;21079;-58
2022/10/10 04:06:37;;;;;;;19.70;13.30;;;15.90;97.10;;;;;;1905249;75;21114;-58
2022/10/10 04:09:06;;;;;;;12.63;9.75;;;15.90;97.10;;;;;;1905379;75;21178;-58
2022/10/10 04:11:37;;;;;;;12.95;10.20;;;15.90;97.10;;;;;;1905372;74;21122;-58
2022/10/10 04:14:07;;;;;;;13.70;10.25;;;15.90;97.10;;;;;;1905303;75;21735;-58
2022/10/10 04:16:36;;;;;;;15.00;11.05;;;15.90;97.30;;;;;;1905349;75;21204;-57
2022/10/10 04:19:06;;;;;;;14.60;10.55;;;16.00;97.10;;;;;;1905401;75;21103;-58
2022/10/10 04:21:35;;;;;;;17.52;11.43;;;15.90;97.10;;;;;;1905227;75;21131;-58
2022/10/10 04:24:05;;;;;;;12.78;10.90;;;16.00;97.10;;;;;;1905314;75;21182;-58
2022/10/10 04:26:35;;;;;;;12.90;10.60;;;16.00;97.10;;;;;;1914166;74;21090;-57
2022/10/10 04:29:05;;;;;;;13.85;10.70;;;16.00;97.10;;;;;;1924723;74;21070;-58
2022/10/10 04:31:34;;;;;;;16.82;12.00;;;16.00;97.10;;;;;;1924557;74;21169;-58
2022/10/10 04:34:04;;;;;;;13.53;9.58;;;16.00;97.10;;;;;;1924607;74;21158;-57
2022/10/10 04:36:34;;;;;;;14.25;10.63;;;16.00;97.10;;;;;;1924615;74;21158;-58
2022/10/10 04:39:03;;;;;;;15.43;10.78;;;16.00;97.10;;;;;;1924568;74;21102;-58
2022/10/10 04:41:33;;;;;;;13.53;10.35;;;16.00;97.10;;;;;;1924543;74;21687;-58
2022/10/10 04:44:03;;;;;;;24.50;13.85;;;16.00;97.10;;;;;;1924654;74;21189;-58
2022/10/10 04:46:32;;;;;;;17.02;10.60;;;16.00;97.10;;;;;;1924664;74;21322;-58
2022/10/10 04:49:02;;;;;;;11.73;10.10;;;16.00;97.20;;;;;;1924692;74;21145;-58
2022/10/10 04:51:32;;;;;;;14.68;10.80;;;16.00;97.10;;;;;;1924634;74;21199;-58
2022/10/10 04:54:01;;;;;;;12.80;9.93;;;16.10;97.10;;;;;;1924590;74;21069;-57
2022/10/10 04:56:31;;;;;;;11.97;9.00;;;16.10;97.20;;;;;;1924519;74;21082;-58
2022/10/10 04:59:01;;;;;;;15.15;9.75;;;16.10;97.20;;;;;;1924485;74;21467;-57
2022/10/10 05:01:31;;;;;;;13.53;10.10;;;16.00;97.10;;;;;;1924482;74;21319;-58
2022/10/10 05:04:01;;;;;;;16.42;10.53;;;16.10;97.10;;;;;;1924586;74;21034;-58
2022/10/10 05:06:31;;;;;;;11.73;9.03;;;16.10;97.00;;;;;;1924635;74;21287;-58
2022/10/10 05:09:00;;;;;;;13.70;10.32;;;16.10;97.00;;;;;;1924627;74;21062;-58
2022/10/10 05:11:30;;;;;;;13.05;8.93;;;16.10;97.10;;;;;;1924584;74;21102;-58
2022/10/10 05:14:00;;;;;;;14.53;9.70;;;16.10;97.10;;;;;;1924530;74;21160;-58
2022/10/10 05:16:29;;;;;;;12.10;8.85;;;16.10;97.10;;;;;;1924564;74;21129;-58
2022/10/10 05:19:00;;;;;;;16.70;10.28;;;16.10;97.10;;;;;;1924497;74;21078;-58
2022/10/10 05:21:30;;;;;;;15.28;10.43;;;16.10;97.10;;;;;;1924610;74;21149;-58
2022/10/10 05:24:00;;;;;;;16.77;10.32;;;16.10;97.10;;;;;;1924493;74;21062;-57
2022/10/10 05:26:29;;;;;;;13.18;9.63;;;16.10;97.30;;;;;;1924500;74;21168;-58
2022/10/10 05:29:00;;;;;;;23.32;12.07;;;16.10;97.00;;;;;;1924545;74;21191;-58
2022/10/10 05:31:30;;;;;;;17.48;11.03;;;16.10;97.10;;;;;;1924595;74;21552;-58
2022/10/10 05:33:59;;;;;;;12.00;9.28;;;16.10;97.10;;;;;;1924689;74;21038;-58
2022/10/10 05:36:29;;;;;;;16.02;11.70;;;16.10;97.10;;;;;;1924471;74;21617;-57
2022/10/10 05:39:00;;;;;;;13.88;9.95;;;16.10;97.00;;;;;;1924621;74;21122;-58
2022/10/10 05:41:30;;;;;;;15.80;10.03;;;16.20;97.10;;;;;;1924686;74;21141;-58
2022/10/10 05:44:00;;;;;;;16.50;9.88;;;16.20;97.10;;;;;;1924576;74;21034;-58
2022/10/10 05:46:29;;;;;;;11.22;9.15;;;16.20;97.10;;;;;;1924649;74;21207;-58
2022/10/10 05:48:59;;;;;;;12.75;9.03;;;16.20;97.00;;;;;;1924464;74;21153;-57
2022/10/10 05:51:29;;;;;;;17.82;12.30;;;16.20;97.00;;;;;;1924459;74;21100;-58
2022/10/10 05:53:59;;;;;;;12.15;9.73;;;16.20;97.00;;;;;;1924486;74;21386;-58
2022/10/10 05:56:28;;;;;;;11.20;9.45;;;16.20;97.00;;;;;;1924489;74;21154;-58
2022/10/10 05:58:58;;;;;;;13.75;8.40;;;16.20;97.00;;;;;;1924512;74;21208;-58
2022/10/10 06:01:28;;;;;;;11.35;8.80;;;16.30;97.00;;;;;;1924453;74;21353;-58
2022/10/10 06:03:58;;;;;;;11.80;8.63;;;16.30;97.00;;;;;;1924522;74;21177;-58
2022/10/10 06:06:28;;;;;;;11.00;7.85;;;16.30;97.00;;;;;;1924757;74;21110;-58
2022/10/10 06:08:58;;;;;;;10.70;7.85;;;16.30;97.00;;;;;;1924452;74;21201;-58
2022/10/10 06:11:28;;;;;;;11.15;8.75;;;16.40;97.00;;;;;;1924520;74;21212;-58
2022/10/10 06:13:58;;;;;;;12.43;8.18;;;16.40;97.00;;;;;;1924645;74;21110;-58
2022/10/10 06:16:28;;;;;;;10.93;7.58;;;16.40;97.00;;;;;;1924637;74;21125;-58
2022/10/10 06:18:57;;;;;;;10.98;7.28;;;16.40;96.90;;;;;;1924721;74;21203;-58
2022/10/10 06:21:27;;;;;;;10.75;7.08;;;16.40;96.90;;;;;;1924554;74;21205;-58
2022/10/10 06:23:57;;;;;;;10.53;7.12;;;16.40;96.90;;;;;;1924538;74;21038;-58
2022/10/10 06:26:26;;;;;;;8.65;7.15;;;16.40;96.90;;;;;;1924707;74;21092;-58
2022/10/10 06:28:56;;;;;;;7.20;6.50;;;16.40;96.90;;;;;;1924488;74;21141;-58
2022/10/10 06:31:26;;;;;;;11.20;7.70;;;16.40;97.00;;;;;;1924629;74;21282;-57
2022/10/10 06:33:55;;;;;;;9.15;6.92;;;16.40;97.00;;;;;;1924592;74;21263;-58
2022/10/10 06:36:25;;;;;;;9.23;7.20;;;16.40;97.00;;;;;;1924513;74;21138;-58
2022/10/10 06:38:54;;;;;;;10.13;7.95;;;16.40;97.00;;;;;;1924590;74;21221;-58
2022/10/10 06:41:24;;;;;;;11.35;8.65;;;16.40;96.90;;;;;;1924561;74;21098;-57
2022/10/10 06:43:54;;;;;;;11.80;7.45;;;16.40;97.00;;;;;;1918809;74;21198;-58
2022/10/10 06:46:24;;;;;;;10.28;8.03;;;16.40;97.20;;;;;;1891279;76;21109;-58
2022/10/10 06:48:53;;;;;;;9.28;7.65;;;16.40;97.20;;;;;;1891347;75;21150;-58
2022/10/10 06:51:24;;;;;;;10.23;6.75;;;16.40;97.10;;;;;;1891412;76;21246;-58
2022/10/10 06:53:54;;;;;;;9.00;7.12;;;16.40;97.20;;;;;;1891693;74;21325;-58
2022/10/10 06:56:23;;;;;;;7.30;5.97;;;16.50;97.20;;;;;;1896001;74;21229;-58
2022/10/10 06:58:53;;;;;;;8.85;6.72;;;16.50;97.10;;;;;;1891295;75;21133;-58
2022/10/10 07:01:24;;;;;;;10.03;6.60;;;16.50;97.10;;;;;;1891398;76;21116;-58
2022/10/10 07:03:54;;;;;;;7.33;5.65;;;16.50;97.10;;;;;;1891385;75;21043;-58
2022/10/10 07:06:23;;;;;;;12.13;7.33;;;16.50;97.10;;;;;;1891401;75;21174;-58
2022/10/10 07:08:53;;;;;;;11.10;7.00;;;16.50;97.00;;;;;;1891448;76;21181;-58
2022/10/10 07:11:24;;;;;;;10.63;7.40;;;16.50;96.90;;;;;;1891377;76;21153;-58
2022/10/10 07:13:53;;;;;;;8.33;6.33;;;16.50;96.90;;;;;;1891481;75;21048;-58
2022/10/10 07:16:23;;;;;;;7.83;7.00;;;16.50;96.80;;;;;;1891403;76;21072;-58
2022/10/10 07:18:53;;;;;;;12.80;7.80;;;16.50;96.70;;;;;;1891371;76;21084;-58
2022/10/10 07:21:23;;;;;;;8.85;6.92;;;16.50;96.70;;;;;;1891366;76;21197;-58
2022/10/10 07:23:52;;;;;;;9.88;7.67;;;16.50;96.70;;;;;;1891394;76;21068;-58
2022/10/10 07:26:21;;;;;;;11.35;7.67;;;16.50;96.80;;;;;;1891324;75;21522;-58
2022/10/10 07:28:51;;;;;;;10.95;8.48;;;16.50;96.80;;;;;;1885156;76;21048;-58
2022/10/10 07:31:21;;;;;;;11.90;9.03;;;16.50;96.90;;;;;;1882185;76;21153;-58
2022/10/10 07:33:51;;;;;;;12.03;8.48;;;16.50;96.80;;;;;;1882260;76;21199;-58
2022/10/10 07:36:20;;;;;;;9.50;7.87;;;16.50;96.80;;;;;;1882159;76;21032;-58
2022/10/10 07:38:51;;;;;;;10.30;8.58;;;16.60;96.80;;;;;;1882155;75;21020;-58
2022/10/10 07:41:21;;;;;;;9.03;7.60;;;16.60;96.80;;;;;;1881534;75;21083;-58
2022/10/10 07:43:55;;;;;;;10.32;8.23;;;16.60;96.80;;;;;;1882181;76;21090;-58
2022/10/10 07:46:25;;;;;;;11.97;8.90;;;16.70;96.60;;;;;;1882430;76;21064;-58
2022/10/10 07:48:56;;;;;;;11.05;9.15;;;16.70;96.60;;;;;;1882278;76;21134;-58
2022/10/10 07:51:25;;;;;;;14.63;9.48;;;16.70;96.60;;;;;;1882228;76;21029;-58
2022/10/10 07:53:55;;;;;;;11.18;8.63;;;16.70;96.80;;;;;;1882358;76;21085;-58
2022/10/10 07:56:24;;;;;;;12.95;8.75;;;16.70;96.40;;;;;;1882302;76;21108;-58
2022/10/10 07:58:54;;;;;;;9.80;7.28;;;16.80;96.50;;;;;;1882391;76;21016;-58
2022/10/10 08:01:24;;;;;;;9.53;6.62;;;16.80;96.40;;;;;;1882249;76;21036;-58
2022/10/10 08:03:57;;;;;;;10.70;7.62;;;16.80;96.40;;;;;;1882341;76;20989;-58
2022/10/10 08:06:27;;;;;;;9.28;6.65;;;16.80;96.40;;;;;;1882299;76;21016;-58
2022/10/10 08:08:57;;;;;;;11.75;7.72;;;16.90;96.40;;;;;;1882420;76;21107;-59
2022/10/10 08:11:27;;;;;;;8.30;6.33;;;16.80;96.30;;;;;;1880883;76;21033;-59
2022/10/10 08:13:56;;;;;;;9.03;6.53;;;16.90;96.20;;;;;;1881605;75;21012;-58
2022/10/10 08:16:26;;;;;;;9.48;7.92;;;16.90;96.20;;;;;;1881542;76;21157;-59
2022/10/10 08:18:56;;;;;;;6.70;5.70;;;16.90;96.10;;;;;;1881468;76;21032;-59
2022/10/10 08:21:31;;;;;;;7.75;6.55;;;16.90;96.10;;;;;;1881585;76;21055;-59
2022/10/10 08:24:01;;;;;;;10.38;7.40;;;16.90;96.20;;;;;;1881648;75;21095;-58
2022/10/10 08:26:31;;;;;;;8.53;6.85;;;17.00;96.20;;;;;;1881338;76;21181;-58
2022/10/10 08:29:01;;;;;;;10.43;8.38;;;17.00;96.10;;;;;;1881678;76;21127;-60
2022/10/10 08:31:31;;;;;;;11.15;8.73;;;17.00;96.10;;;;;;1881479;76;21020;-60
2022/10/10 08:34:06;;;;;;;10.25;8.33;;;17.10;96.10;;;;;;1895262;75;21077;-58
2022/10/10 08:36:38;;;;;;;9.43;8.38;;;17.10;96.10;;;;;;1912993;75;21034;-59
2022/10/10 08:39:09;;;;;;;11.68;9.23;;;17.10;96.00;;;;;;1914166;75;21261;-59
2022/10/10 08:41:41;;;;;;;15.93;9.03;;;17.10;96.00;;;;;;1914063;75;21574;-60
2022/10/10 08:44:41;;;;;;;10.90;8.15;;;17.10;96.00;;;;;;1914043;75;21067;-60
2022/10/10 08:47:19;;;;;;;12.85;8.48;;;17.20;96.30;;;;;;1913925;74;21063;-59
2022/10/10 08:49:53;;;;;;;11.05;8.60;;;17.20;96.00;;;;;;1914107;75;21548;-59
2022/10/10 08:52:34;;;;;;;10.85;9.58;;;17.30;95.90;;;;;;1914176;75;21019;-59
2022/10/10 08:55:31;;;;;;;11.10;9.50;;;17.30;95.80;;;;;;1913987;75;21156;-59
2022/10/10 08:58:18;;;;;;;11.33;9.28;;;17.30;95.90;;;;;;1913238;75;21092;-59
2022/10/10 09:00:53;;;;;;;14.25;8.40;;;17.30;95.80;;;;;;1913955;74;20995;-61
2022/10/10 09:03:40;;;;;;;10.20;9.10;;;17.40;95.80;;;;;;1913941;74;21106;-59
2022/10/10 09:06:32;;;;;;;12.25;8.45;;;17.50;95.90;;;;;;1914187;75;21082;-61
2022/10/10 09:09:14;;;;;;;12.53;10.72;;;17.60;95.90;;;;;;1914100;75;21102;-59
2022/10/10 09:11:53;;;;;;;15.28;9.35;;;17.70;95.70;;;;;;1913980;75;21140;-60
2022/10/10 09:14:37;;;;;;;13.15;9.93;;;17.70;95.40;;;;;;1913548;75;21015;-59
2022/10/10 09:17:25;;;;;;;9.73;8.45;;;17.80;95.50;;;;;;1913980;74;21625;-59
2022/10/10 09:20:06;;;;;;;19.12;9.45;;;17.90;95.20;;;;;;1914164;75;21073;-59
2022/10/10 09:22:38;;;;;;;12.30;9.43;;;18.00;95.10;;;;;;1914214;74;21184;-58
2022/10/10 09:25:16;;;;;;;13.98;9.93;;;18.10;95.20;;;;;;1913261;75;21015;-57
2022/10/10 09:27:48;;;;;;;13.75;9.63;;;18.20;95.10;;;;;;1914121;75;21706;-58
2022/10/10 09:30:20;;;;;;;13.78;10.20;;;18.30;94.20;;;;;;1922169;74;21115;-57
2022/10/10 09:33:16;;;;;;;13.43;9.25;;;18.30;94.00;;;;;;1923875;74;21078;-58
2022/10/10 09:35:48;;;;;;;15.13;8.90;;;18.40;93.50;;;;;;1923860;74;21109;-58
2022/10/10 09:38:20;;;;;;;14.60;8.45;;;18.30;92.80;;;;;;1923884;74;21076;-59
2022/10/10 09:40:52;;;;;;;13.55;8.28;;;18.30;92.40;;;;;;1923819;74;21058;-60
2022/10/10 09:43:22;;;;;;;14.73;9.28;;;18.30;92.40;;;;;;1923874;74;21180;-61
2022/10/10 09:45:58;;;;;;;14.65;9.93;;;18.20;92.20;;;;;;1923859;74;21039;-61
2022/10/10 09:48:30;;;;;;;14.35;9.28;;;18.20;91.90;;;;;;1923535;74;21472;-62
2022/10/10 09:51:01;;;;;;;9.93;8.00;;;18.30;91.90;;;;;;1923826;74;21066;-62
2022/10/10 09:53:30;;;;;;;11.63;9.38;;;18.30;91.90;;;;;;1923986;74;21112;-60
2022/10/10 09:56:00;;;;;;;9.90;7.47;;;18.30;92.00;;;;;;1923902;74;21066;-60
2022/10/10 09:58:38;;;;;;;16.48;11.08;;;18.30;91.60;;;;;;1923981;74;21074;-60
2022/10/10 10:01:16;;;;;;;23.90;14.23;;;18.20;92.10;;;;;;1924263;74;20995;-62
2022/10/10 10:04:05;;;;;;;20.20;10.58;;;18.20;92.10;;;;;;1924046;74;21155;-60
2022/10/10 10:06:34;;;;;;;16.73;9.98;;;18.20;92.10;;;;;;1924168;74;21089;-60
2022/10/10 10:09:06;;;;;;;12.75;10.58;;;18.10;92.10;;;;;;1924180;74;20999;-62
2022/10/10 10:11:42;;;;;;;13.03;9.58;;;18.10;92.00;;;;;;1923913;74;21042;-60
2022/10/10 10:14:29;;;;;;;11.63;10.32;;;18.10;91.60;;;;;;1923557;74;21151;-59
2022/10/10 10:17:13;;;;;;;13.20;10.40;;;18.10;91.70;;;;;;1923809;74;21078;-60
2022/10/10 10:19:45;;;;;;;10.17;8.73;;;18.20;91.90;;;;;;1923156;74;21014;-59
2022/10/10 10:22:35;;;;;;;14.05;10.63;;;18.30;91.70;;;;;;1923998;74;21742;-60
2022/10/10 10:25:29;;;;;;;13.60;7.53;;;18.40;91.60;;;;;;1923960;74;21090;-61
2022/10/10 10:28:16;;;;;;;8.68;6.58;;;18.50;90.40;;;;;;1919139;74;21163;-62
2022/10/10 10:30:47;;;;;;;12.78;8.78;;;18.50;88.10;;;;;;1908247;74;21502;-62
2022/10/10 10:33:37;;;;;;;14.78;9.60;;;18.50;89.10;;;;;;1904582;75;21059;-62
2022/10/10 10:36:31;;;;;;;10.63;9.53;;;18.60;89.90;;;;;;1904316;74;21043;-61
2022/10/10 10:39:07;;;;;;;13.53;10.35;;;18.70;90.10;;;;;;1882642;74;21039;-61
2022/10/10 10:41:39;;;;;;;12.80;8.10;;;18.80;90.00;;;;;;1904181;74;21043;-61
2022/10/10 10:44:29;;;;;;;7.90;7.10;;;18.80;88.60;;;;;;1904178;74;21071;-61
2022/10/10 10:47:07;;;;;;;12.03;7.30;;;18.80;87.20;;;;;;1904057;74;21094;-60
2022/10/10 10:49:42;;;;;;;13.05;7.95;;;18.70;86.30;;;;;;1904196;74;21106;-61
2022/10/10 10:52:34;;;;;;;10.05;8.85;;;18.70;86.80;;;;;;1904449;74;21047;-60
2022/10/10 10:55:29;;;;;;;13.48;7.85;;;18.60;87.10;;;;;;1904343;75;21051;-61
2022/10/10 10:58:21;;;;;;;13.18;9.08;;;18.50;87.20;;;;;;1904584;74;21117;-60
2022/10/10 11:01:01;;;;;;;11.70;9.18;;;18.50;86.60;;;;;;1904297;74;21124;-59
2022/10/10 11:03:52;;;;;;;10.10;8.80;;;18.50;86.70;;;;;;1903930;74;21102;-60
2022/10/10 11:06:43;;;;;;;9.25;7.40;;;18.40;87.30;;;;;;1903859;74;21000;-59
2022/10/10 11:09:15;;;;;;;7.97;6.90;;;18.40;87.40;;;;;;1905359;75;21145;-58
2022/10/10 11:11:51;;;;;;;10.60;7.15;;;18.50;87.60;;;;;;1905305;75;21036;-58
2022/10/10 11:14:29;;;;;;;10.05;7.35;;;18.50;86.60;;;;;;1905158;75;21089;-58
2022/10/10 11:17:01;;;;;;;11.38;6.97;;;18.60;86.00;;;;;;1905203;75;21023;-59
2022/10/10 11:19:35;;;;;;;8.08;6.20;;;18.50;84.90;;;;;;1904857;74;21062;-59
2022/10/10 11:22:05;;;;;;;;;;;18.50;84.40;;;;;;1907961;74;21043;-59
2022/10/10 11:24:46;;;;;;;8.60;6.65;;;18.40;84.00;;;;;;1904461;75;20106;-58
2022/10/10 11:27:39;;;;;;;8.10;6.47;;;18.30;84.80;;;;;;1905325;75;21003;-59
2022/10/10 11:30:17;;;;;;;12.55;8.45;;;18.30;85.00;;;;;;1905166;74;21059;-59
2022/10/10 11:33:15;;;;;;;8.60;5.92;;;18.20;85.60;;;;;;1900783;75;21015;-59
2022/10/10 11:35:56;;;;;;;15.18;8.65;;;18.30;86.40;;;;;;1885918;75;21019;-59
2022/10/10 11:38:29;;;;;;;12.03;7.80;;;18.40;85.90;;;;;;1905324;74;21079;-59
2022/10/10 11:41:28;;;;;;;11.00;8.55;;;18.40;85.70;;;;;;1905231;75;21039;-59
2022/10/10 11:44:06;;;;;;;11.43;8.00;;;18.50;86.00;;;;;;1846090;77;21136;-59
2022/10/10 11:46:44;;;;;;;13.45;6.78;;;18.50;86.20;;;;;;1896107;74;21081;-59
2022/10/10 11:49:18;;;;;;;14.70;8.78;;;18.60;85.40;;;;;;1905336;75;21462;-59
2022/10/10 11:51:59;;;;;;;9.58;7.85;;;18.70;84.00;;;;;;1905536;75;21118;-59
2022/10/10 11:54:31;;;;;;;10.63;6.10;;;18.70;83.80;;;;;;1905330;75;21023;-59
2022/10/10 11:57:03;;;;;;;11.70;7.10;;;18.70;82.60;;;;;;1905115;74;21160;-59
2022/10/10 11:59:47;;;;;;;6.80;5.35;;;18.80;81.30;;;;;;1904352;74;21003;-59
2022/10/10 12:02:23;;;;;;;8.08;6.67;;;18.60;79.80;;;;;;1905649;75;21055;-59
2022/10/10 12:04:53;;;;;;;7.37;5.53;;;18.50;80.30;;;;;;1904182;74;21092;-59
2022/10/10 12:07:34;;;;;;;10.15;7.83;;;18.40;79.80;;;;;;1905348;75;21012;-59
2022/10/10 12:10:15;;;;;;;10.53;7.15;;;18.30;80.90;;;;;;1905417;74;20992;-59
2022/10/10 12:12:47;;;;;;;8.05;7.22;;;18.30;81.30;;;;;;1904932;74;21043;-59
2022/10/10 12:15:28;;;;;;;9.65;7.35;;;18.30;81.20;;;;;;1905050;75;21036;-59
2022/10/10 12:17:58;;;;;;;6.97;5.90;;;18.40;80.90;;;;;;1903720;74;21089;-59
2022/10/10 12:20:30;;;;;;;10.93;6.28;;;18.40;80.90;;;;;;1905363;75;21155;-59
2022/10/10 12:23:20;;;;;;;10.15;6.28;;;18.40;80.10;;;;;;1905488;75;21015;-60
2022/10/10 12:25:50;;;;;;;7.45;5.70;;;18.40;80.20;;;;;;1905355;75;21069;-60
2022/10/10 12:28:28;;;;;;;8.95;7.10;;;18.30;78.00;;;;;;1905317;75;21043;-60
2022/10/10 12:31:06;;;;;;;7.85;5.40;;;18.30;78.80;;;;;;1914934;74;21050;-60
2022/10/10 12:33:40;;;;;;;14.23;6.12;;;18.30;78.70;;;;;;1924840;74;21038;-60
2022/10/10 12:36:30;;;;;;;10.32;6.08;;;18.30;77.50;;;;;;1924756;74;21042;-60
2022/10/10 12:39:07;;;;;;;9.33;5.90;;;18.30;78.00;;;;;;1924806;74;21034;-58
2022/10/10 12:41:45;;;;;;;7.15;5.22;;;18.40;77.30;;;;;;1924841;74;21042;-58
2022/10/10 12:44:29;;;;;;;10.38;6.28;;;18.40;77.30;;;;;;1921844;74;21078;-58
2022/10/10 12:47:23;;;;;;;7.03;5.78;;;18.50;77.80;;;;;;1922697;74;21120;-58
2022/10/10 12:50:00;;;;;;;8.65;5.70;;;18.50;78.10;;;;;;1924184;74;21011;-58
2022/10/10 12:52:34;;;;;;;7.45;5.85;;;18.60;77.80;;;;;;1924772;74;21015;-58
2022/10/10 12:55:09;;;;;;;6.78;5.70;;;18.60;77.60;;;;;;1924721;74;21499;-58
2022/10/10 12:57:44;;;;;;;8.25;5.10;;;18.60;76.90;;;;;;1924644;74;21077;-58
2022/10/10 13:00:20;;;;;;;5.03;4.53;;;18.50;76.10;;;;;;1924719;74;21010;-58
2022/10/10 13:02:52;;;;;;;8.10;4.95;;;18.50;75.40;;;;;;1924656;74;21006;-58
2022/10/10 13:05:27;;;;;;;6.65;5.15;;;18.40;74.30;;;;;;1923860;74;21078;-58
2022/10/10 13:07:59;;;;;;;10.63;6.10;;;18.40;75.10;;;;;;1924800;74;21082;-58
2022/10/10 13:10:30;;;;;;;6.20;5.58;;;18.40;76.60;;;;;;1923903;74;21019;-58